Time;durP1;ratioP1;P1;durP2;ratioP2;P2;SDS_P1;SDS_P2;PMS_P1;PMS_P2;Temp;Humidity;BMP_temperature;BMP_pressure;BME280_temperature;BME280_humidity;BME280_pressure;Samples;Min_cycle;Max_cycle;Signal;HPM_P1;HPM_P2
2021/10/06 00:01:56;;;;;;;2.25;0.50;;;13.10;96.50;;;;;;5075430;28;20025;-82
2021/10/06 00:04:22;;;;;;;1.35;0.30;;;13.10;96.60;;;;;;5075566;28;20044;-81
2021/10/06 00:06:48;;;;;;;1.73;0.22;;;13.10;96.70;;;;;;5075191;28;20020;-82
2021/10/06 00:09:14;;;;;;;3.08;0.40;;;13.10;96.80;;;;;;5075175;28;20363;-81
2021/10/06 00:11:40;;;;;;;2.85;0.40;;;13.00;96.90;;;;;;5079783;28;20121;-82
2021/10/06 00:14:10;;;;;;;1.38;0.50;;;13.00;97.00;;;;;;5075981;28;20143;-81
2021/10/06 00:16:36;;;;;;;1.17;0.57;;;13.00;97.00;;;;;;5075694;28;20469;-81
2021/10/06 00:19:03;;;;;;;3.80;0.70;;;13.00;97.00;;;;;;5075159;28;20479;-81
2021/10/06 00:21:29;;;;;;;4.38;0.45;;;13.00;96.90;;;;;;5091524;28;20032;-86
2021/10/06 00:23:54;;;;;;;1.25;0.40;;;13.00;96.90;;;;;;5094836;28;20024;-81
2021/10/06 00:26:20;;;;;;;4.03;0.70;;;13.00;97.30;;;;;;5096183;28;20035;-81
2021/10/06 00:28:46;;;;;;;2.25;0.40;;;13.00;97.00;;;;;;5076277;28;20033;-81
2021/10/06 00:31:11;;;;;;;3.92;0.47;;;13.00;96.90;;;;;;5075106;28;20640;-81
2021/10/06 00:33:37;;;;;;;2.38;0.40;;;13.00;96.70;;;;;;5074358;28;20066;-81
2021/10/06 00:36:03;;;;;;;3.80;0.70;;;13.10;96.70;;;;;;5076229;28;20484;-82
2021/10/06 00:38:29;;;;;;;4.32;0.45;;;13.10;96.70;;;;;;5075351;28;20024;-82
2021/10/06 00:40:55;;;;;;;1.58;0.35;;;13.10;96.80;;;;;;5075910;28;20040;-82
2021/10/06 00:43:21;;;;;;;1.30;0.20;;;13.10;96.90;;;;;;5074435;28;20024;-82
2021/10/06 00:45:47;;;;;;;2.05;0.40;;;13.10;97.00;;;;;;5074348;28;20056;-82
2021/10/06 00:48:12;;;;;;;1.35;0.40;;;13.10;97.10;;;;;;5074639;28;20110;-82
2021/10/06 00:50:38;;;;;;;5.68;0.43;;;13.10;97.20;;;;;;5074980;28;20025;-82
2021/10/06 00:53:05;;;;;;;5.30;0.68;;;13.20;97.30;;;;;;5076500;28;20029;-82
2021/10/06 00:55:32;;;;;;;1.55;0.40;;;13.20;97.30;;;;;;5073691;28;20533;-82
2021/10/06 00:57:58;;;;;;;5.75;0.50;;;13.20;97.30;;;;;;5074036;28;20080;-82
2021/10/06 01:00:23;;;;;;;2.88;0.60;;;13.20;97.30;;;;;;5074638;28;20024;-82
2021/10/06 01:02:50;;;;;;;2.83;0.40;;;13.10;97.40;;;;;;5090942;28;20489;-82
2021/10/06 01:05:17;;;;;;;1.13;0.40;;;13.20;97.30;;;;;;5094252;28;20024;-82
2021/10/06 01:07:43;;;;;;;0.65;0.28;;;13.20;97.30;;;;;;5093587;28;20128;-81
2021/10/06 01:10:09;;;;;;;2.83;0.45;;;13.20;97.20;;;;;;5087901;28;20123;-81
2021/10/06 01:12:36;;;;;;;2.05;0.38;;;13.20;97.00;;;;;;5076565;28;20469;-82
2021/10/06 01:15:04;;;;;;;0.93;0.52;;;13.30;97.40;;;;;;5095259;28;20032;-81
2021/10/06 01:17:30;;;;;;;1.65;0.50;;;13.20;97.00;;;;;;5089970;28;20111;-89
2021/10/06 01:19:56;;;;;;;3.60;0.40;;;13.20;96.90;;;;;;5074678;28;20062;-81
2021/10/06 01:22:22;;;;;;;1.85;0.30;;;13.20;97.00;;;;;;5078483;28;20019;-81
2021/10/06 01:24:47;;;;;;;1.98;0.50;;;13.30;96.90;;;;;;5094284;28;20484;-81
2021/10/06 01:27:14;;;;;;;0.82;0.40;;;13.30;97.10;;;;;;5094840;28;20114;-80
2021/10/06 01:29:39;;;;;;;5.15;0.50;;;13.30;96.80;;;;;;5093558;28;20020;-82
2021/10/06 01:32:17;;;;;;;3.55;0.75;;;13.30;96.80;;;;;;5093725;28;20028;-82
2021/10/06 01:34:43;;;;;;;3.28;0.40;;;13.40;96.70;;;;;;5072915;28;20041;-82
2021/10/06 01:37:09;;;;;;;4.07;0.50;;;13.40;96.60;;;;;;5073470;28;20477;-82
2021/10/06 01:39:35;;;;;;;2.08;0.50;;;13.30;96.30;;;;;;5085805;28;20039;-82
2021/10/06 01:42:01;;;;;;;2.10;0.50;;;13.40;96.40;;;;;;5094044;28;20032;-82
2021/10/06 01:44:27;;;;;;;2.83;0.52;;;13.40;96.50;;;;;;5075059;28;20094;-80
2021/10/06 01:46:53;;;;;;;2.63;0.47;;;13.40;96.30;;;;;;5073022;28;20587;-82
2021/10/06 01:49:19;;;;;;;4.30;0.50;;;13.40;96.30;;;;;;5077710;28;20024;-80
2021/10/06 01:51:45;;;;;;;2.22;0.40;;;13.40;96.10;;;;;;5092853;28;20499;-81
2021/10/06 01:54:11;;;;;;;4.00;0.50;;;13.40;96.10;;;;;;5077008;28;20041;-80
2021/10/06 01:56:38;;;;;;;3.35;0.68;;;13.40;95.80;;;;;;5072169;28;20075;-81
2021/10/06 01:59:04;;;;;;;3.47;0.45;;;13.40;95.70;;;;;;5073162;28;20385;-81
2021/10/06 02:01:30;;;;;;;1.95;0.40;;;13.40;95.70;;;;;;5072788;28;20032;-81
2021/10/06 02:03:55;;;;;;;1.55;0.60;;;13.40;95.80;;;;;;5072997;28;20595;-82
2021/10/06 02:06:21;;;;;;;1.13;0.30;;;13.40;95.60;;;;;;5073262;28;20039;-82
2021/10/06 02:08:47;;;;;;;1.15;0.30;;;13.40;95.40;;;;;;5072504;28;20025;-82
2021/10/06 02:11:13;;;;;;;1.40;0.40;;;13.30;95.60;;;;;;5082926;28;20028;-81
2021/10/06 02:13:39;;;;;;;2.38;0.40;;;13.40;95.70;;;;;;5086942;28;20063;-82
2021/10/06 02:16:04;;;;;;;0.88;0.40;;;13.40;95.80;;;;;;5073195;28;20025;-81
2021/10/06 02:18:30;;;;;;;2.08;0.52;;;13.30;95.80;;;;;;5106192;28;20068;-82
2021/10/06 02:20:56;;;;;;;4.65;0.40;;;13.30;95.80;;;;;;5073681;28;20020;-80
2021/10/06 02:23:22;;;;;;;1.75;0.55;;;13.30;95.70;;;;;;5074335;28;20039;-82
2021/10/06 02:25:48;;;;;;;2.08;0.68;;;13.30;95.90;;;;;;5073641;28;20104;-82
2021/10/06 02:28:13;;;;;;;2.90;0.40;;;13.30;95.90;;;;;;5073162;28;20024;-81
2021/10/06 02:30:39;;;;;;;3.25;0.38;;;13.30;95.70;;;;;;5072226;28;20025;-82
2021/10/06 02:33:05;;;;;;;4.90;0.60;;;13.30;95.70;;;;;;5072173;28;20045;-81
2021/10/06 02:35:30;;;;;;;2.08;0.60;;;13.30;95.80;;;;;;5091432;28;20028;-82
2021/10/06 02:37:56;;;;;;;3.80;0.50;;;13.30;95.90;;;;;;5092859;28;20020;-82
2021/10/06 02:40:22;;;;;;;1.73;0.40;;;13.30;95.80;;;;;;5106936;28;20021;-82
2021/10/06 02:42:49;;;;;;;3.30;0.50;;;13.30;95.70;;;;;;5072878;28;20139;-82
2021/10/06 02:45:16;;;;;;;5.78;0.52;;;13.30;95.70;;;;;;5077005;28;20046;-81
2021/10/06 02:47:42;;;;;;;3.08;0.50;;;13.30;95.70;;;;;;5086571;28;20031;-82
2021/10/06 02:50:11;;;;;;;1.67;0.40;;;13.30;95.60;;;;;;5097065;28;20020;-82
2021/10/06 02:52:37;;;;;;;2.70;0.50;;;13.30;95.70;;;;;;5097873;28;20117;-84
2021/10/06 02:55:03;;;;;;;1.65;0.60;;;13.30;95.80;;;;;;5096048;28;20464;-81
2021/10/06 02:57:29;;;;;;;2.55;0.40;;;13.30;96.00;;;;;;5096718;28;20071;-81
2021/10/06 02:59:55;;;;;;;6.18;0.50;;;13.30;96.20;;;;;;5092288;28;20113;-82
2021/10/06 03:02:20;;;;;;;4.05;0.50;;;13.20;96.40;;;;;;5077432;28;20028;-81
2021/10/06 03:04:46;;;;;;;2.53;0.50;;;13.20;96.50;;;;;;5077319;28;20040;-83
2021/10/06 03:07:12;;;;;;;1.45;0.35;;;13.20;96.60;;;;;;5097202;28;20062;-82
2021/10/06 03:09:38;;;;;;;1.33;0.60;;;13.10;96.70;;;;;;5092736;28;20021;-87
2021/10/06 03:12:04;;;;;;;3.20;0.52;;;13.20;96.90;;;;;;5075892;28;20070;-81
2021/10/06 03:14:29;;;;;;;5.82;0.70;;;13.10;96.90;;;;;;5084844;28;20389;-82
2021/10/06 03:16:55;;;;;;;2.45;0.63;;;13.10;96.80;;;;;;5083963;28;20042;-82
2021/10/06 03:19:21;;;;;;;1.75;0.52;;;13.10;96.40;;;;;;5076201;28;20029;-82
2021/10/06 03:21:46;;;;;;;1.33;0.40;;;13.10;96.40;;;;;;5075737;28;20028;-82
2021/10/06 03:24:12;;;;;;;3.92;0.63;;;13.10;96.50;;;;;;5077112;28;20457;-82
2021/10/06 03:26:38;;;;;;;2.08;0.40;;;13.10;96.60;;;;;;5076590;28;20485;-85
2021/10/06 03:29:03;;;;;;;1.35;0.40;;;13.10;96.70;;;;;;5095861;28;20029;-81
2021/10/06 03:31:29;;;;;;;1.98;0.50;;;13.20;96.80;;;;;;5096203;28;20032;-82
2021/10/06 03:33:57;;;;;;;3.03;0.50;;;13.10;97.00;;;;;;5096526;28;20043;-82
2021/10/06 03:36:22;;;;;;;1.48;0.40;;;13.00;97.20;;;;;;5096217;28;20043;-82
2021/10/06 03:38:48;;;;;;;5.00;0.47;;;13.00;97.30;;;;;;5095049;28;20460;-82
2021/10/06 03:41:14;;;;;;;1.17;0.30;;;13.00;97.40;;;;;;5091249;28;20029;-81
2021/10/06 03:43:39;;;;;;;1.92;0.57;;;13.00;97.50;;;;;;5084570;28;20016;-85
2021/10/06 03:46:05;;;;;;;3.17;0.68;;;13.00;97.70;;;;;;5076490;28;20025;-82
2021/10/06 03:48:31;;;;;;;3.63;0.50;;;13.00;97.70;;;;;;5075949;28;20424;-82
2021/10/06 03:50:56;;;;;;;3.95;0.43;;;13.10;97.80;;;;;;5077657;28;20028;-82
2021/10/06 03:53:22;;;;;;;1.92;0.50;;;13.00;97.80;;;;;;5080125;28;20041;-82
2021/10/06 03:55:48;;;;;;;1.77;0.40;;;13.00;97.80;;;;;;5082493;28;20046;-82
2021/10/06 03:58:15;;;;;;;2.17;0.47;;;13.00;97.90;;;;;;5094275;28;20114;-84
2021/10/06 04:00:41;;;;;;;2.78;0.50;;;12.90;97.80;;;;;;5094122;28;20067;-82
2021/10/06 04:03:11;;;;;;;2.70;0.40;;;12.90;97.60;;;;;;5093478;28;20467;-82
2021/10/06 04:05:37;;;;;;;2.53;0.50;;;12.90;97.70;;;;;;5094299;28;20020;-82
2021/10/06 04:08:03;;;;;;;1.38;0.52;;;12.90;97.60;;;;;;5113641;28;20031;-82
2021/10/06 04:10:29;;;;;;;2.22;0.50;;;12.80;97.60;;;;;;5116222;28;20027;-82
2021/10/06 04:12:56;;;;;;;2.88;0.50;;;12.80;97.60;;;;;;5115151;28;20034;-82
2021/10/06 04:15:21;;;;;;;3.65;0.52;;;12.80;97.90;;;;;;5098293;28;20468;-82
2021/10/06 04:17:47;;;;;;;2.33;0.45;;;12.70;97.70;;;;;;5094734;28;20024;-82
2021/10/06 04:20:13;;;;;;;1.77;0.32;;;12.70;97.60;;;;;;5095463;28;20455;-82
2021/10/06 04:22:39;;;;;;;2.25;0.50;;;12.70;97.70;;;;;;5096331;28;20457;-81
2021/10/06 04:25:05;;;;;;;1.88;0.50;;;12.70;97.80;;;;;;5095560;28;20027;-82
2021/10/06 04:27:31;;;;;;;2.78;1.00;;;12.70;98.00;;;;;;5094584;28;20412;-82
2021/10/06 04:29:56;;;;;;;5.18;0.90;;;12.70;98.10;;;;;;5095962;28;20088;-82
2021/10/06 04:32:22;;;;;;;2.47;0.30;;;12.70;98.00;;;;;;5096173;28;20111;-82
2021/10/06 04:34:48;;;;;;;1.05;0.60;;;12.70;97.50;;;;;;5095713;28;20114;-82
2021/10/06 04:37:13;;;;;;;2.30;0.57;;;12.70;96.90;;;;;;5094933;28;20111;-82
2021/10/06 04:39:39;;;;;;;1.65;0.52;;;12.70;96.60;;;;;;5094480;28;20020;-81
2021/10/06 04:42:06;;;;;;;3.97;0.68;;;12.70;96.70;;;;;;5094635;28;20036;-82
2021/10/06 04:44:31;;;;;;;2.25;0.47;;;12.60;96.90;;;;;;5094470;28;20020;-82
2021/10/06 04:46:57;;;;;;;4.40;0.50;;;12.70;96.90;;;;;;5094542;28;20063;-82
2021/10/06 04:49:23;;;;;;;3.95;0.80;;;12.70;97.00;;;;;;5094889;28;20028;-82
2021/10/06 04:51:48;;;;;;;2.05;0.45;;;12.70;97.10;;;;;;5094166;28;20024;-82
2021/10/06 04:54:14;;;;;;;2.28;0.45;;;12.70;97.30;;;;;;5094943;28;20111;-82
2021/10/06 04:56:40;;;;;;;1.50;0.60;;;12.80;97.20;;;;;;5095930;28;20060;-81
2021/10/06 04:59:05;;;;;;;1.77;0.45;;;12.70;97.20;;;;;;5093615;28;20020;-82
2021/10/06 05:01:31;;;;;;;3.53;0.70;;;12.70;97.10;;;;;;5094678;28;20544;-82
2021/10/06 05:03:56;;;;;;;2.10;0.47;;;12.70;97.30;;;;;;5094036;28;20036;-82
2021/10/06 05:06:22;;;;;;;3.40;0.75;;;12.70;97.40;;;;;;5094552;28;20024;-82
2021/10/06 05:08:48;;;;;;;2.72;0.85;;;12.60;97.20;;;;;;5093965;28;20368;-82
2021/10/06 05:11:13;;;;;;;2.60;0.40;;;12.70;97.20;;;;;;5094596;28;20020;-82
2021/10/06 05:13:39;;;;;;;2.80;0.68;;;12.70;97.20;;;;;;5094276;28;20035;-81
2021/10/06 05:16:05;;;;;;;2.25;0.60;;;12.70;96.80;;;;;;5093687;28;20031;-82
2021/10/06 05:18:30;;;;;;;1.40;0.80;;;12.70;96.80;;;;;;5095041;28;20481;-81
2021/10/06 05:20:56;;;;;;;3.75;0.50;;;12.70;96.70;;;;;;5093528;28;20028;-82
2021/10/06 05:23:22;;;;;;;2.60;0.70;;;12.70;96.50;;;;;;5116774;27;20094;-82
2021/10/06 05:25:50;;;;;;;2.25;0.50;;;12.60;96.70;;;;;;5073184;28;20032;-88
2021/10/06 05:28:21;;;;;;;3.38;0.68;;;12.60;96.70;;;;;;5074664;28;20377;-82
2021/10/06 05:30:46;;;;;;;6.43;0.70;;;12.60;97.00;;;;;;5073576;28;20020;-87
2021/10/06 05:33:12;;;;;;;2.03;0.52;;;12.60;97.00;;;;;;5078840;28;20089;-82
2021/10/06 05:35:37;;;;;;;2.17;0.50;;;12.50;97.00;;;;;;5093536;28;20062;-81
2021/10/06 05:38:03;;;;;;;2.80;0.65;;;12.50;97.10;;;;;;5093108;28;20032;-82
2021/10/06 05:40:29;;;;;;;5.95;0.73;;;12.50;97.20;;;;;;5093346;28;20024;-82
2021/10/06 05:42:54;;;;;;;4.15;0.80;;;12.50;97.20;;;;;;5092723;28;20028;-82
2021/10/06 05:45:21;;;;;;;1.90;0.70;;;12.50;97.20;;;;;;5093677;28;20481;-82
2021/10/06 05:47:46;;;;;;;2.92;0.52;;;12.50;97.20;;;;;;5093784;28;20165;-86
2021/10/06 05:50:12;;;;;;;1.83;0.47;;;12.60;97.20;;;;;;5093008;28;20058;-81
2021/10/06 05:52:38;;;;;;;3.63;0.80;;;12.50;97.10;;;;;;5093176;28;20427;-82
2021/10/06 05:55:05;;;;;;;6.90;0.85;;;12.50;97.10;;;;;;5127354;27;20433;-82
2021/10/06 05:57:30;;;;;;;5.53;0.60;;;12.50;96.90;;;;;;5093085;28;20052;-81
2021/10/06 05:59:56;;;;;;;2.58;0.60;;;12.50;96.70;;;;;;5092817;28;20032;-82
2021/10/06 06:02:21;;;;;;;2.75;0.70;;;12.50;96.70;;;;;;5092900;28;20089;-82
2021/10/06 06:04:48;;;;;;;7.00;0.80;;;12.50;96.70;;;;;;5094018;28;20093;-86
2021/10/06 06:07:14;;;;;;;2.22;0.40;;;12.50;96.70;;;;;;5092782;28;20028;-82
2021/10/06 06:09:40;;;;;;;3.45;0.75;;;12.50;96.50;;;;;;5093005;28;20020;-81
2021/10/06 06:12:09;;;;;;;2.45;0.50;;;12.50;96.50;;;;;;5093130;28;20035;-83
2021/10/06 06:14:36;;;;;;;3.03;0.70;;;12.50;96.50;;;;;;5092869;28;20024;-82
2021/10/06 06:17:02;;;;;;;3.03;0.73;;;12.50;96.40;;;;;;5093302;28;20499;-82
2021/10/06 06:19:27;;;;;;;1.73;0.75;;;12.60;96.40;;;;;;5133079;27;20119;-82
2021/10/06 06:21:53;;;;;;;2.85;0.60;;;12.60;96.30;;;;;;5098996;28;20070;-82
2021/10/06 06:24:19;;;;;;;3.55;0.52;;;12.50;96.10;;;;;;5099868;28;20032;-81
2021/10/06 06:26:44;;;;;;;1.20;0.60;;;12.50;96.00;;;;;;5099809;28;20031;-81
2021/10/06 06:29:10;;;;;;;7.25;0.80;;;12.50;96.10;;;;;;5098372;28;20342;-82
2021/10/06 06:31:35;;;;;;;3.55;0.85;;;12.50;96.20;;;;;;5099312;28;20039;-81
2021/10/06 06:34:01;;;;;;;3.17;0.73;;;12.60;96.30;;;;;;5099964;28;20148;-82
2021/10/06 06:36:27;;;;;;;4.50;1.00;;;12.50;96.30;;;;;;5099539;28;20389;-81
2021/10/06 06:38:52;;;;;;;3.40;0.60;;;12.40;96.20;;;;;;5099605;28;20087;-86
2021/10/06 06:41:18;;;;;;;2.50;0.75;;;12.50;96.30;;;;;;5099643;28;20388;-83
2021/10/06 06:43:43;;;;;;;2.60;0.60;;;12.50;96.30;;;;;;5098907;28;20442;-82
2021/10/06 06:46:10;;;;;;;6.30;1.33;;;12.50;96.40;;;;;;5098818;28;20032;-82
2021/10/06 06:48:36;;;;;;;2.78;0.93;;;12.50;96.30;;;;;;5099316;28;20514;-82
2021/10/06 06:51:02;;;;;;;3.13;0.80;;;12.40;96.20;;;;;;5097764;28;20028;-81
2021/10/06 06:53:27;;;;;;;3.42;1.15;;;12.40;96.20;;;;;;5098813;28;20503;-80
2021/10/06 06:55:58;;;;;;;1.48;0.40;;;12.40;96.30;;;;;;5099159;28;20031;-86
2021/10/06 06:58:25;;;;;;;4.30;0.60;;;12.40;96.20;;;;;;5100071;28;20024;-81
2021/10/06 07:00:50;;;;;;;2.13;0.50;;;12.40;96.10;;;;;;5099197;28;20040;-84
2021/10/06 07:03:17;;;;;;;2.83;0.60;;;12.40;96.20;;;;;;5100047;28;20035;-82
2021/10/06 07:05:44;;;;;;;1.23;0.30;;;12.50;96.00;;;;;;5099758;28;20028;-81
2021/10/06 07:08:09;;;;;;;3.38;0.52;;;12.60;96.00;;;;;;5098688;28;20054;-82
2021/10/06 07:10:36;;;;;;;2.75;0.63;;;12.60;96.00;;;;;;5099546;28;20457;-82
2021/10/06 07:13:03;;;;;;;8.32;1.00;;;12.60;95.60;;;;;;5098824;28;20127;-82
2021/10/06 07:15:28;;;;;;;7.40;1.38;;;12.60;95.80;;;;;;5099630;28;20106;-82
2021/10/06 07:17:55;;;;;;;1.40;0.63;;;12.60;95.60;;;;;;5098570;28;20046;-84
2021/10/06 07:20:20;;;;;;;2.63;0.65;;;12.60;95.60;;;;;;5099505;28;20158;-81
2021/10/06 07:22:46;;;;;;;4.32;0.65;;;12.60;95.40;;;;;;5099324;28;20083;-82
2021/10/06 07:25:12;;;;;;;3.08;0.73;;;12.60;95.40;;;;;;5098589;28;20114;-82
2021/10/06 07:27:38;;;;;;;1.10;0.60;;;12.60;95.40;;;;;;5100030;28;20020;-82
2021/10/06 07:30:04;;;;;;;4.85;0.80;;;12.60;95.30;;;;;;5095849;28;20032;-81
2021/10/06 07:32:30;;;;;;;3.33;0.70;;;12.50;95.20;;;;;;5096259;28;20164;-81
2021/10/06 07:34:56;;;;;;;2.60;0.77;;;12.40;95.40;;;;;;5095251;28;20061;-87
2021/10/06 07:37:21;;;;;;;3.17;0.60;;;12.30;95.40;;;;;;5129387;27;20465;-81
2021/10/06 07:39:48;;;;;;;2.95;0.55;;;12.30;95.50;;;;;;5096086;28;20024;-81
2021/10/06 07:42:13;;;;;;;4.30;0.80;;;12.30;95.60;;;;;;5096262;28;20114;-81
2021/10/06 07:44:39;;;;;;;3.65;0.75;;;12.30;95.50;;;;;;5095856;28;20020;-81
2021/10/06 07:47:05;;;;;;;3.40;0.55;;;12.20;95.70;;;;;;5095611;28;20024;-82
2021/10/06 07:49:31;;;;;;;5.28;0.50;;;12.20;95.60;;;;;;5095597;28;20115;-81
2021/10/06 07:51:56;;;;;;;4.88;0.40;;;12.30;95.50;;;;;;5095102;28;20473;-86
2021/10/06 07:54:22;;;;;;;4.22;0.75;;;12.40;95.40;;;;;;5096667;28;20037;-82
2021/10/06 07:56:48;;;;;;;2.50;0.52;;;12.40;95.20;;;;;;5095154;28;20428;-81
2021/10/06 07:59:13;;;;;;;3.47;0.60;;;12.50;95.10;;;;;;5095082;28;20687;-82
2021/10/06 08:01:39;;;;;;;2.78;0.63;;;12.50;95.20;;;;;;5096401;28;20110;-82
2021/10/06 08:04:05;;;;;;;3.67;0.55;;;12.50;95.10;;;;;;5095897;28;20059;-81
2021/10/06 08:06:30;;;;;;;2.03;0.40;;;12.50;95.10;;;;;;5094900;28;20028;-81
2021/10/06 08:08:56;;;;;;;5.22;0.68;;;12.50;95.10;;;;;;5096117;28;20028;-86
2021/10/06 08:11:22;;;;;;;3.30;0.50;;;12.40;95.10;;;;;;5095840;28;20028;-81
2021/10/06 08:13:47;;;;;;;4.50;0.70;;;12.50;95.10;;;;;;5094835;28;20119;-81
2021/10/06 08:16:13;;;;;;;3.17;0.70;;;12.50;95.20;;;;;;5094597;28;20028;-81
2021/10/06 08:18:39;;;;;;;2.90;0.70;;;12.50;95.30;;;;;;5095841;28;20031;-81
2021/10/06 08:21:04;;;;;;;3.00;0.65;;;12.50;95.20;;;;;;5094255;28;20486;-81
2021/10/06 08:23:31;;;;;;;8.25;0.95;;;12.40;95.30;;;;;;5094610;28;20028;-81
2021/10/06 08:25:59;;;;;;;1.75;0.40;;;12.60;95.10;;;;;;5094326;28;20035;-82
2021/10/06 08:28:31;;;;;;;2.70;0.60;;;12.70;94.90;;;;;;5095916;28;20024;-81
2021/10/06 08:30:57;;;;;;;1.88;0.50;;;12.90;94.70;;;;;;5094369;28;20028;-86
2021/10/06 08:33:23;;;;;;;2.22;1.05;;;12.90;94.40;;;;;;5095693;28;20066;-82
2021/10/06 08:35:48;;;;;;;4.30;0.60;;;12.90;94.20;;;;;;5094696;28;20093;-82
2021/10/06 08:38:14;;;;;;;6.78;0.65;;;13.00;94.00;;;;;;5093543;28;20020;-82
2021/10/06 08:40:40;;;;;;;1.80;0.65;;;13.00;93.90;;;;;;5100134;28;20028;-83
2021/10/06 08:43:08;;;;;;;2.40;0.63;;;13.00;94.00;;;;;;5100833;28;20032;-81
2021/10/06 08:45:35;;;;;;;4.25;0.50;;;13.10;93.80;;;;;;5094825;28;20480;-82
2021/10/06 08:48:02;;;;;;;4.35;0.70;;;13.20;94.00;;;;;;5094215;28;20032;-82
2021/10/06 08:50:28;;;;;;;4.68;0.77;;;13.10;93.70;;;;;;5093778;28;20161;-82
2021/10/06 08:52:54;;;;;;;5.70;0.60;;;13.00;93.90;;;;;;5095469;28;20032;-82
2021/10/06 08:55:30;;;;;;;4.97;0.80;;;13.00;94.00;;;;;;5092876;28;20052;-82
2021/10/06 08:57:58;;;;;;;4.93;0.70;;;13.00;93.80;;;;;;5093757;28;20077;-82
2021/10/06 09:00:24;;;;;;;4.00;0.70;;;13.00;94.10;;;;;;5094008;28;20028;-82
2021/10/06 09:02:50;;;;;;;2.05;0.57;;;13.10;94.20;;;;;;5093668;28;20024;-82
2021/10/06 09:05:22;;;;;;;4.05;0.70;;;13.10;93.90;;;;;;5092849;28;20110;-82
2021/10/06 09:08:03;;;;;;;3.45;0.65;;;13.10;93.70;;;;;;5094797;28;20024;-82
2021/10/06 09:10:31;;;;;;;4.13;0.80;;;13.10;93.90;;;;;;5090038;28;20024;-82
2021/10/06 09:13:04;;;;;;;3.17;0.60;;;13.10;93.80;;;;;;5127026;27;20469;-87
2021/10/06 09:15:50;;;;;;;4.70;0.85;;;13.30;93.70;;;;;;5091290;28;20490;-79
2021/10/06 09:18:24;;;;;;;4.18;0.63;;;13.40;93.70;;;;;;5092942;28;20035;-81
2021/10/06 09:20:50;;;;;;;3.33;0.57;;;13.40;93.70;;;;;;5090589;28;20031;-81
2021/10/06 09:23:18;;;;;;;1.73;0.50;;;13.50;93.50;;;;;;5093896;28;20035;-81
2021/10/06 09:26:04;;;;;;;3.05;0.85;;;13.50;93.40;;;;;;5093858;28;20107;-81
2021/10/06 09:28:37;;;;;;;3.95;0.77;;;13.40;93.30;;;;;;5092893;28;20391;-81
2021/10/06 09:31:10;;;;;;;6.90;0.70;;;13.30;93.80;;;;;;5093331;28;20473;-82
2021/10/06 09:33:42;;;;;;;5.15;0.90;;;13.30;93.80;;;;;;5096685;28;20036;-81
2021/10/06 09:36:13;;;;;;;3.85;0.80;;;13.40;93.70;;;;;;5093054;28;20023;-81
2021/10/06 09:38:43;;;;;;;2.83;0.80;;;13.50;93.70;;;;;;5094090;28;20028;-81
2021/10/06 09:41:43;;;;;;;5.38;1.17;;;13.70;93.10;;;;;;5092808;28;20026;-80
2021/10/06 09:44:23;;;;;;;5.03;1.02;;;13.80;92.50;;;;;;5093374;28;20023;-81
2021/10/06 09:46:58;;;;;;;3.78;0.50;;;13.90;92.70;;;;;;5094972;28;20177;-81
2021/10/06 09:49:28;;;;;;;2.78;0.80;;;13.90;91.80;;;;;;5092529;28;20028;-81
2021/10/06 09:52:13;;;;;;;4.65;0.85;;;13.80;91.70;;;;;;5094664;28;20024;-81
2021/10/06 09:54:39;;;;;;;3.67;0.60;;;13.80;92.00;;;;;;5092592;28;20028;-80
2021/10/06 09:57:05;;;;;;;5.30;0.50;;;13.80;91.90;;;;;;5093184;28;20044;-81
2021/10/06 09:59:32;;;;;;;3.97;0.50;;;13.70;92.20;;;;;;5093596;28;20043;-80
2021/10/06 10:01:59;;;;;;;3.72;0.70;;;13.70;92.10;;;;;;5091928;28;20085;-80
2021/10/06 10:04:28;;;;;;;3.15;0.70;;;13.80;91.90;;;;;;5092897;28;20024;-81
2021/10/06 10:06:55;;;;;;;2.53;0.50;;;13.90;92.00;;;;;;5092778;28;20024;-80
2021/10/06 10:09:21;;;;;;;7.57;1.00;;;13.80;91.50;;;;;;5092166;28;20023;-80
2021/10/06 10:11:48;;;;;;;2.60;0.55;;;13.70;91.30;;;;;;5093000;28;20426;-80
2021/10/06 10:14:13;;;;;;;3.90;0.60;;;13.60;91.70;;;;;;5094311;28;20035;-81
2021/10/06 10:16:39;;;;;;;2.45;0.75;;;13.50;91.90;;;;;;5093612;28;20020;-80
2021/10/06 10:19:13;;;;;;;6.32;0.75;;;13.50;92.30;;;;;;5126610;28;20032;-81
2021/10/06 10:21:43;;;;;;;3.88;0.70;;;13.50;92.30;;;;;;5127241;28;20035;-80
2021/10/06 10:24:09;;;;;;;4.00;0.65;;;13.60;92.60;;;;;;5126662;28;20051;-81
2021/10/06 10:26:35;;;;;;;5.43;1.00;;;13.70;92.40;;;;;;5092794;28;20020;-81
2021/10/06 10:29:01;;;;;;;3.72;0.70;;;13.70;92.20;;;;;;5092489;28;20043;-81
2021/10/06 10:31:28;;;;;;;4.72;0.40;;;13.80;91.60;;;;;;5097701;28;20028;-81
2021/10/06 10:33:53;;;;;;;2.88;0.55;;;13.90;91.30;;;;;;5095482;28;20031;-80
2021/10/06 10:36:39;;;;;;;4.97;0.98;;;13.90;91.20;;;;;;5091971;28;20020;-79
2021/10/06 10:39:25;;;;;;;5.95;0.70;;;14.00;90.30;;;;;;5092526;28;20035;-86
2021/10/06 10:41:55;;;;;;;2.78;0.70;;;14.00;90.70;;;;;;5093160;28;20212;-79
2021/10/06 10:44:45;;;;;;;4.97;0.63;;;14.10;90.10;;;;;;5092660;28;20028;-81
2021/10/06 10:47:10;;;;;;;3.75;0.60;;;14.10;89.20;;;;;;5078853;28;20024;-81
2021/10/06 10:49:53;;;;;;;3.80;0.73;;;14.20;89.00;;;;;;5113285;28;20030;-81
2021/10/06 10:52:39;;;;;;;6.47;0.68;;;14.40;88.30;;;;;;5107832;28;20028;-81
2021/10/06 10:55:06;;;;;;;2.35;0.57;;;14.50;87.70;;;;;;5092025;28;20031;-80
2021/10/06 10:57:32;;;;;;;2.33;0.38;;;14.60;88.60;;;;;;5106441;28;20488;-80
2021/10/06 10:59:58;;;;;;;5.28;0.50;;;14.50;88.00;;;;;;5095772;28;20028;-80
2021/10/06 11:02:37;;;;;;;1.92;0.55;;;14.40;88.20;;;;;;5092224;28;20453;-80
2021/10/06 11:05:08;;;;;;;4.60;0.55;;;14.40;87.60;;;;;;5094785;28;20028;-87
2021/10/06 11:07:50;;;;;;;4.35;1.05;;;14.50;87.20;;;;;;5095123;28;20031;-81
2021/10/06 11:10:17;;;;;;;2.65;0.52;;;14.60;87.30;;;;;;5096106;28;20377;-79
2021/10/06 11:12:53;;;;;;;3.25;0.70;;;14.60;86.70;;;;;;5097427;28;20039;-79
2021/10/06 11:15:19;;;;;;;6.03;0.60;;;14.60;86.80;;;;;;5093790;28;20544;-79
2021/10/06 11:18:06;;;;;;;1.98;0.50;;;14.50;86.80;;;;;;5107440;28;20055;-79
2021/10/06 11:20:44;;;;;;;3.58;0.55;;;14.60;86.50;;;;;;5107826;28;20054;-79
2021/10/06 11:23:45;;;;;;;1.42;0.55;;;14.70;85.70;;;;;;5096317;28;20035;-80
2021/10/06 11:26:18;;;;;;;3.13;0.40;;;14.90;86.40;;;;;;5055932;28;20036;-81
2021/10/06 11:28:48;;;;;;;3.75;0.43;;;15.00;86.50;;;;;;5074450;28;20468;-80
2021/10/06 11:31:15;;;;;;;3.58;0.47;;;15.10;87.00;;;;;;5140021;27;20114;-81
2021/10/06 11:33:42;;;;;;;3.35;0.30;;;15.10;86.80;;;;;;5113330;28;20039;-80
2021/10/06 11:36:18;;;;;;;4.93;0.60;;;15.00;87.20;;;;;;5101059;28;20057;-84
2021/10/06 11:38:47;;;;;;;2.58;0.50;;;14.90;86.80;;;;;;5089731;28;20020;-80
2021/10/06 11:41:16;;;;;;;3.58;0.60;;;14.80;88.00;;;;;;5094464;28;20024;-83
2021/10/06 11:43:51;;;;;;;3.95;0.55;;;14.80;88.80;;;;;;5084167;28;20036;-81
2021/10/06 11:46:23;;;;;;;1.67;0.40;;;14.80;88.70;;;;;;5092957;28;20031;-80
2021/10/06 11:48:52;;;;;;;4.40;0.45;;;14.90;88.00;;;;;;5097660;28;20024;-81
2021/10/06 11:51:18;;;;;;;4.60;0.60;;;15.10;87.70;;;;;;5115056;28;20035;-80
2021/10/06 11:53:49;;;;;;;2.00;0.50;;;15.10;87.00;;;;;;5112418;28;20292;-82
2021/10/06 11:56:29;;;;;;;4.32;0.38;;;15.20;87.20;;;;;;5097454;28;20079;-82
2021/10/06 11:59:06;;;;;;;2.53;0.45;;;15.10;86.20;;;;;;5075664;28;20064;-81
2021/10/06 12:01:31;;;;;;;4.65;0.90;;;15.00;87.80;;;;;;5091117;28;20034;-80
2021/10/06 12:04:07;;;;;;;3.70;0.52;;;14.90;88.50;;;;;;5105564;28;20032;-79
2021/10/06 12:06:33;;;;;;;1.23;0.43;;;14.60;90.60;;;;;;5107863;28;20024;-81
2021/10/06 12:09:00;;;;;;;1.00;0.40;;;14.50;91.40;;;;;;5114299;28;20024;-81
2021/10/06 12:11:26;;;;;;;4.55;0.98;;;14.60;91.70;;;;;;5094243;28;20028;-80
2021/10/06 12:13:52;;;;;;;4.50;0.70;;;14.60;91.50;;;;;;5095345;28;20068;-79
2021/10/06 12:16:28;;;;;;;2.95;0.70;;;14.60;91.60;;;;;;5094018;28;20477;-80
2021/10/06 12:19:02;;;;;;;2.88;0.60;;;14.50;91.80;;;;;;5096995;28;20479;-80
2021/10/06 12:21:29;;;;;;;5.38;0.73;;;14.50;92.00;;;;;;5114491;28;20056;-81
2021/10/06 12:24:13;;;;;;;3.08;0.77;;;14.50;91.20;;;;;;5104942;28;20538;-81
2021/10/06 12:26:39;;;;;;;3.88;0.70;;;14.60;91.80;;;;;;5095351;28;20021;-81
2021/10/06 12:29:05;;;;;;;3.38;0.60;;;14.80;91.90;;;;;;5094272;28;20024;-80
2021/10/06 12:31:32;;;;;;;3.70;0.68;;;15.20;91.50;;;;;;5095362;28;20020;-80
2021/10/06 12:34:17;;;;;;;5.97;0.82;;;15.30;90.70;;;;;;5094487;28;20166;-81
2021/10/06 12:36:46;;;;;;;2.22;0.57;;;15.20;91.00;;;;;;5109705;28;20023;-81
2021/10/06 12:39:24;;;;;;;2.03;0.60;;;15.30;91.20;;;;;;5108121;28;20024;-81
2021/10/06 12:41:53;;;;;;;3.22;0.70;;;15.30;91.10;;;;;;5095645;28;20096;-79
2021/10/06 12:44:32;;;;;;;2.03;0.65;;;15.30;90.20;;;;;;5090982;28;20028;-80
2021/10/06 12:46:59;;;;;;;3.83;0.98;;;15.30;90.10;;;;;;5093708;28;20028;-80
2021/10/06 12:49:28;;;;;;;2.47;0.65;;;15.30;90.00;;;;;;5092428;28;20120;-82
2021/10/06 12:52:00;;;;;;;4.32;1.13;;;15.20;89.60;;;;;;5093181;28;20111;-80